sensor_id;sensor_type;location;lat;lon;timestamp;P1;durP1;ratioP1;P2;durP2;ratioP2
75990;SDS011;64673;52.276;10.560;2023-07-20T00:01:45;3.05;;;0.80;;
75990;SDS011;64673;52.276;10.560;2023-07-20T00:04:11;1.88;;;0.75;;
75990;SDS011;64673;52.276;10.560;2023-07-20T00:06:36;1.10;;;0.70;;
75990;SDS011;64673;52.276;10.560;2023-07-20T00:09:08;1.02;;;0.80;;
75990;SDS011;64673;52.276;10.560;2023-07-20T00:11:35;1.30;;;0.90;;
75990;SDS011;64673;52.276;10.560;2023-07-20T00:14:02;1.13;;;0.73;;
75990;SDS011;64673;52.276;10.560;2023-07-20T00:16:28;2.67;;;0.88;;
75990;SDS011;64673;52.276;10.560;2023-07-20T00:18:53;0.65;;;0.50;;
75990;SDS011;64673;52.276;10.560;2023-07-20T00:21:18;1.80;;;0.90;;
75990;SDS011;64673;52.276;10.560;2023-07-20T00:23:44;1.10;;;0.75;;
75990;SDS011;64673;52.276;10.560;2023-07-20T00:26:09;1.42;;;0.93;;
75990;SDS011;64673;52.276;10.560;2023-07-20T00:28:35;2.75;;;0.93;;
75990;SDS011;64673;52.276;10.560;2023-07-20T00:31:00;1.73;;;0.90;;
75990;SDS011;64673;52.276;10.560;2023-07-20T00:33:25;1.33;;;0.70;;
75990;SDS011;64673;52.276;10.560;2023-07-20T00:35:51;1.38;;;0.90;;
75990;SDS011;64673;52.276;10.560;2023-07-20T00:38:16;2.47;;;0.85;;
75990;SDS011;64673;52.276;10.560;2023-07-20T00:40:42;1.17;;;0.80;;
75990;SDS011;64673;52.276;10.560;2023-07-20T00:43:07;1.15;;;0.80;;
75990;SDS011;64673;52.276;10.560;2023-07-20T00:45:34;1.45;;;1.00;;
75990;SDS011;64673;52.276;10.560;2023-07-20T00:48:00;1.35;;;0.85;;
75990;SDS011;64673;52.276;10.560;2023-07-20T00:52:54;1.52;;;0.75;;
75990;SDS011;64673;52.276;10.560;2023-07-20T00:55:20;1.20;;;0.70;;
75990;SDS011;64673;52.276;10.560;2023-07-20T00:57:45;2.35;;;0.93;;
75990;SDS011;64673;52.276;10.560;2023-07-20T01:00:11;2.35;;;0.80;;
75990;SDS011;64673;52.276;10.560;2023-07-20T01:02:37;1.27;;;0.85;;
75990;SDS011;64673;52.276;10.560;2023-07-20T01:05:04;1.55;;;1.10;;
75990;SDS011;64673;52.276;10.560;2023-07-20T01:07:35;1.00;;;0.70;;
75990;SDS011;64673;52.276;10.560;2023-07-20T01:15:11;1.80;;;0.80;;
75990;SDS011;64673;52.276;10.560;2023-07-20T01:17:37;3.08;;;0.90;;
75990;SDS011;64673;52.276;10.560;2023-07-20T01:20:03;2.63;;;1.05;;
75990;SDS011;64673;52.276;10.560;2023-07-20T01:30:43;1.75;;;1.30;;
75990;SDS011;64673;52.276;10.560;2023-07-20T01:33:15;3.28;;;1.10;;
75990;SDS011;64673;52.276;10.560;2023-07-20T01:35:43;4.57;;;1.73;;
75990;SDS011;64673;52.276;10.560;2023-07-20T01:38:11;2.70;;;1.30;;
75990;SDS011;64673;52.276;10.560;2023-07-20T01:40:38;2.25;;;1.27;;
75990;SDS011;64673;52.276;10.560;2023-07-20T01:43:04;3.80;;;1.70;;
75990;SDS011;64673;52.276;10.560;2023-07-20T01:45:29;2.72;;;1.25;;
75990;SDS011;64673;52.276;10.560;2023-07-20T01:47:54;2.63;;;1.20;;
75990;SDS011;64673;52.276;10.560;2023-07-20T01:50:20;4.05;;;1.40;;
75990;SDS011;64673;52.276;10.560;2023-07-20T01:52:45;2.20;;;1.38;;
75990;SDS011;64673;52.276;10.560;2023-07-20T01:55:10;2.55;;;1.40;;
75990;SDS011;64673;52.276;10.560;2023-07-20T01:57:36;4.60;;;1.40;;
75990;SDS011;64673;52.276;10.560;2023-07-20T02:00:01;1.80;;;1.17;;
75990;SDS011;64673;52.276;10.560;2023-07-20T02:02:27;5.53;;;1.20;;
75990;SDS011;64673;52.276;10.560;2023-07-20T02:04:53;2.83;;;1.50;;
75990;SDS011;64673;52.276;10.560;2023-07-20T02:07:18;1.92;;;1.20;;
75990;SDS011;64673;52.276;10.560;2023-07-20T02:09:44;1.92;;;1.23;;
75990;SDS011;64673;52.276;10.560;2023-07-20T02:12:09;1.50;;;1.00;;
75990;SDS011;64673;52.276;10.560;2023-07-20T02:14:34;1.60;;;0.95;;
75990;SDS011;64673;52.276;10.560;2023-07-20T02:17:00;1.85;;;0.90;;
75990;SDS011;64673;52.276;10.560;2023-07-20T02:19:26;1.48;;;0.90;;
75990;SDS011;64673;52.276;10.560;2023-07-20T02:21:51;1.65;;;0.88;;
75990;SDS011;64673;52.276;10.560;2023-07-20T02:24:17;2.00;;;0.82;;
75990;SDS011;64673;52.276;10.560;2023-07-20T02:26:43;5.55;;;0.93;;
75990;SDS011;64673;52.276;10.560;2023-07-20T02:29:08;1.33;;;0.80;;
75990;SDS011;64673;52.276;10.560;2023-07-20T02:31:36;1.33;;;0.88;;
75990;SDS011;64673;52.276;10.560;2023-07-20T02:34:02;1.20;;;0.70;;
75990;SDS011;64673;52.276;10.560;2023-07-20T02:36:28;1.45;;;1.10;;
75990;SDS011;64673;52.276;10.560;2023-07-20T02:38:53;1.00;;;0.50;;
75990;SDS011;64673;52.276;10.560;2023-07-20T02:41:19;1.30;;;0.80;;
75990;SDS011;64673;52.276;10.560;2023-07-20T02:43:45;1.15;;;0.73;;
75990;SDS011;64673;52.276;10.560;2023-07-20T02:46:10;1.15;;;0.68;;
75990;SDS011;64673;52.276;10.560;2023-07-20T02:48:36;2.92;;;0.65;;
75990;SDS011;64673;52.276;10.560;2023-07-20T02:51:01;1.92;;;0.98;;
75990;SDS011;64673;52.276;10.560;2023-07-20T02:53:26;1.90;;;0.80;;
75990;SDS011;64673;52.276;10.560;2023-07-20T02:55:52;1.35;;;0.90;;
75990;SDS011;64673;52.276;10.560;2023-07-20T02:58:17;3.60;;;0.75;;
75990;SDS011;64673;52.276;10.560;2023-07-20T03:00:42;1.45;;;0.70;;
75990;SDS011;64673;52.276;10.560;2023-07-20T03:03:08;1.65;;;0.60;;
75990;SDS011;64673;52.276;10.560;2023-07-20T03:05:34;4.93;;;0.80;;
75990;SDS011;64673;52.276;10.560;2023-07-20T03:08:00;2.45;;;0.75;;
75990;SDS011;64673;52.276;10.560;2023-07-20T03:10:27;2.75;;;0.93;;
75990;SDS011;64673;52.276;10.560;2023-07-20T03:12:53;1.50;;;0.90;;
75990;SDS011;64673;52.276;10.560;2023-07-20T03:15:18;1.63;;;0.82;;
75990;SDS011;64673;52.276;10.560;2023-07-20T03:17:43;1.50;;;1.00;;
75990;SDS011;64673;52.276;10.560;2023-07-20T03:20:09;1.95;;;0.85;;
75990;SDS011;64673;52.276;10.560;2023-07-20T03:22:35;1.35;;;0.85;;
75990;SDS011;64673;52.276;10.560;2023-07-20T03:25:00;2.40;;;1.00;;
75990;SDS011;64673;52.276;10.560;2023-07-20T03:27:26;1.42;;;1.10;;
75990;SDS011;64673;52.276;10.560;2023-07-20T03:29:51;1.42;;;0.82;;
75990;SDS011;64673;52.276;10.560;2023-07-20T03:32:16;2.10;;;0.85;;
75990;SDS011;64673;52.276;10.560;2023-07-20T03:34:42;1.38;;;0.70;;
75990;SDS011;64673;52.276;10.560;2023-07-20T03:37:09;1.73;;;1.00;;
75990;SDS011;64673;52.276;10.560;2023-07-20T03:39:34;1.30;;;0.70;;
75990;SDS011;64673;52.276;10.560;2023-07-20T03:42:01;4.80;;;1.42;;
75990;SDS011;64673;52.276;10.560;2023-07-20T03:44:26;1.10;;;0.60;;
75990;SDS011;64673;52.276;10.560;2023-07-20T03:46:52;1.38;;;0.82;;
75990;SDS011;64673;52.276;10.560;2023-07-20T03:49:17;1.23;;;0.70;;
75990;SDS011;64673;52.276;10.560;2023-07-20T03:51:43;1.42;;;0.80;;
75990;SDS011;64673;52.276;10.560;2023-07-20T03:54:08;2.25;;;0.80;;
75990;SDS011;64673;52.276;10.560;2023-07-20T03:56:34;1.17;;;0.60;;
75990;SDS011;64673;52.276;10.560;2023-07-20T03:59:00;1.50;;;0.80;;
75990;SDS011;64673;52.276;10.560;2023-07-20T04:01:26;3.22;;;1.00;;
75990;SDS011;64673;52.276;10.560;2023-07-20T04:03:51;3.38;;;1.05;;
75990;SDS011;64673;52.276;10.560;2023-07-20T04:06:16;1.92;;;1.00;;
75990;SDS011;64673;52.276;10.560;2023-07-20T04:08:42;3.08;;;1.00;;
75990;SDS011;64673;52.276;10.560;2023-07-20T04:11:08;29.75;;;2.13;;
75990;SDS011;64673;52.276;10.560;2023-07-20T04:13:33;15.85;;;4.47;;
75990;SDS011;64673;52.276;10.560;2023-07-20T04:15:59;10.63;;;3.45;;
75990;SDS011;64673;52.276;10.560;2023-07-20T04:18:25;5.85;;;2.13;;
75990;SDS011;64673;52.276;10.560;2023-07-20T04:20:50;6.35;;;2.20;;
75990;SDS011;64673;52.276;10.560;2023-07-20T04:23:16;3.08;;;1.40;;
75990;SDS011;64673;52.276;10.560;2023-07-20T04:25:42;1.38;;;0.77;;
75990;SDS011;64673;52.276;10.560;2023-07-20T04:28:07;1.88;;;1.00;;
75990;SDS011;64673;52.276;10.560;2023-07-20T04:30:36;2.35;;;0.82;;
75990;SDS011;64673;52.276;10.560;2023-07-20T04:33:05;1.48;;;0.80;;
75990;SDS011;64673;52.276;10.560;2023-07-20T04:38:15;5.03;;;0.93;;
75990;SDS011;64673;52.276;10.560;2023-07-20T04:40:43;1.35;;;0.80;;
75990;SDS011;64673;52.276;10.560;2023-07-20T04:43:09;1.60;;;1.00;;
75990;SDS011;64673;52.276;10.560;2023-07-20T04:45:34;1.73;;;0.90;;
75990;SDS011;64673;52.276;10.560;2023-07-20T04:48:00;2.60;;;0.90;;
75990;SDS011;64673;52.276;10.560;2023-07-20T04:50:25;1.27;;;1.00;;
75990;SDS011;64673;52.276;10.560;2023-07-20T04:52:51;1.52;;;0.82;;
75990;SDS011;64673;52.276;10.560;2023-07-20T04:55:17;4.38;;;1.10;;
75990;SDS011;64673;52.276;10.560;2023-07-20T04:57:42;1.23;;;0.90;;
75990;SDS011;64673;52.276;10.560;2023-07-20T05:00:08;1.50;;;0.90;;
75990;SDS011;64673;52.276;10.560;2023-07-20T05:02:36;3.80;;;0.90;;
75990;SDS011;64673;52.276;10.560;2023-07-20T05:05:02;3.42;;;0.70;;
75990;SDS011;64673;52.276;10.560;2023-07-20T05:07:30;3.20;;;1.23;;
75990;SDS011;64673;52.276;10.560;2023-07-20T05:09:56;1.70;;;0.80;;
75990;SDS011;64673;52.276;10.560;2023-07-20T05:12:21;2.40;;;1.30;;
75990;SDS011;64673;52.276;10.560;2023-07-20T05:14:47;1.40;;;0.95;;
75990;SDS011;64673;52.276;10.560;2023-07-20T05:17:12;1.77;;;0.90;;
75990;SDS011;64673;52.276;10.560;2023-07-20T05:19:37;1.63;;;0.80;;
75990;SDS011;64673;52.276;10.560;2023-07-20T05:22:03;1.42;;;0.80;;
75990;SDS011;64673;52.276;10.560;2023-07-20T05:26:55;1.07;;;0.70;;
75990;SDS011;64673;52.276;10.560;2023-07-20T05:29:20;2.92;;;0.93;;
75990;SDS011;64673;52.276;10.560;2023-07-20T05:31:46;1.30;;;0.75;;
75990;SDS011;64673;52.276;10.560;2023-07-20T05:34:11;1.25;;;0.77;;
75990;SDS011;64673;52.276;10.560;2023-07-20T05:36:36;2.08;;;0.77;;
75990;SDS011;64673;52.276;10.560;2023-07-20T05:39:02;3.50;;;1.00;;
75990;SDS011;64673;52.276;10.560;2023-07-20T05:41:27;1.88;;;0.80;;
75990;SDS011;64673;52.276;10.560;2023-07-20T05:43:52;1.35;;;0.80;;
75990;SDS011;64673;52.276;10.560;2023-07-20T05:46:18;1.60;;;0.77;;
75990;SDS011;64673;52.276;10.560;2023-07-20T05:48:43;1.77;;;0.95;;
75990;SDS011;64673;52.276;10.560;2023-07-20T05:51:08;1.90;;;0.85;;
75990;SDS011;64673;52.276;10.560;2023-07-20T05:53:34;0.98;;;0.70;;
75990;SDS011;64673;52.276;10.560;2023-07-20T05:56:00;2.45;;;1.00;;
75990;SDS011;64673;52.276;10.560;2023-07-20T05:58:25;2.65;;;0.77;;
75990;SDS011;64673;52.276;10.560;2023-07-20T06:00:51;1.40;;;0.90;;
75990;SDS011;64673;52.276;10.560;2023-07-20T06:03:16;2.17;;;1.00;;
75990;SDS011;64673;52.276;10.560;2023-07-20T06:05:42;3.90;;;1.00;;
75990;SDS011;64673;52.276;10.560;2023-07-20T06:08:08;2.75;;;1.23;;
75990;SDS011;64673;52.276;10.560;2023-07-20T06:10:33;2.67;;;1.30;;
75990;SDS011;64673;52.276;10.560;2023-07-20T06:12:59;2.03;;;1.10;;
75990;SDS011;64673;52.276;10.560;2023-07-20T06:15:25;2.47;;;1.25;;
75990;SDS011;64673;52.276;10.560;2023-07-20T06:17:52;3.17;;;1.48;;
75990;SDS011;64673;52.276;10.560;2023-07-20T06:20:18;3.05;;;1.23;;
75990;SDS011;64673;52.276;10.560;2023-07-20T06:22:44;4.55;;;1.30;;
75990;SDS011;64673;52.276;10.560;2023-07-20T06:25:10;2.05;;;1.42;;
75990;SDS011;64673;52.276;10.560;2023-07-20T06:27:35;3.97;;;1.67;;
75990;SDS011;64673;52.276;10.560;2023-07-20T06:30:01;2.10;;;1.27;;
75990;SDS011;64673;52.276;10.560;2023-07-20T06:32:26;2.22;;;1.30;;
75990;SDS011;64673;52.276;10.560;2023-07-20T06:34:52;1.90;;;1.20;;
75990;SDS011;64673;52.276;10.560;2023-07-20T06:37:17;2.97;;;1.13;;
75990;SDS011;64673;52.276;10.560;2023-07-20T06:39:42;2.83;;;1.48;;
75990;SDS011;64673;52.276;10.560;2023-07-20T06:42:08;2.30;;;1.60;;
75990;SDS011;64673;52.276;10.560;2023-07-20T06:44:33;5.82;;;1.90;;
75990;SDS011;64673;52.276;10.560;2023-07-20T06:46:58;3.35;;;1.75;;
75990;SDS011;64673;52.276;10.560;2023-07-20T06:49:25;3.35;;;1.98;;
75990;SDS011;64673;52.276;10.560;2023-07-20T06:51:51;4.20;;;1.70;;
75990;SDS011;64673;52.276;10.560;2023-07-20T06:54:17;3.35;;;1.70;;
75990;SDS011;64673;52.276;10.560;2023-07-20T06:56:42;3.00;;;1.60;;
75990;SDS011;64673;52.276;10.560;2023-07-20T06:59:08;4.88;;;2.10;;
75990;SDS011;64673;52.276;10.560;2023-07-20T07:01:33;4.18;;;2.08;;
75990;SDS011;64673;52.276;10.560;2023-07-20T07:03:58;4.82;;;2.65;;
75990;SDS011;64673;52.276;10.560;2023-07-20T07:06:24;6.53;;;3.05;;
75990;SDS011;64673;52.276;10.560;2023-07-20T07:08:49;10.48;;;4.00;;
75990;SDS011;64673;52.276;10.560;2023-07-20T07:11:14;11.38;;;4.60;;
75990;SDS011;64673;52.276;10.560;2023-07-20T07:13:40;10.88;;;4.15;;
75990;SDS011;64673;52.276;10.560;2023-07-20T07:16:05;6.63;;;3.58;;
75990;SDS011;64673;52.276;10.560;2023-07-20T07:18:30;6.03;;;3.30;;
75990;SDS011;64673;52.276;10.560;2023-07-20T07:20:56;4.93;;;3.22;;
75990;SDS011;64673;52.276;10.560;2023-07-20T07:23:21;5.20;;;2.88;;
75990;SDS011;64673;52.276;10.560;2023-07-20T07:25:47;6.05;;;2.83;;
75990;SDS011;64673;52.276;10.560;2023-07-20T07:28:12;6.72;;;3.50;;
75990;SDS011;64673;52.276;10.560;2023-07-20T07:30:38;6.38;;;3.15;;
75990;SDS011;64673;52.276;10.560;2023-07-20T07:33:03;5.32;;;3.15;;
75990;SDS011;64673;52.276;10.560;2023-07-20T07:35:29;5.57;;;3.20;;
75990;SDS011;64673;52.276;10.560;2023-07-20T07:37:54;4.75;;;2.50;;
75990;SDS011;64673;52.276;10.560;2023-07-20T07:40:20;4.03;;;2.38;;
75990;SDS011;64673;52.276;10.560;2023-07-20T07:42:45;3.00;;;1.67;;
75990;SDS011;64673;52.276;10.560;2023-07-20T07:45:10;2.58;;;1.80;;
75990;SDS011;64673;52.276;10.560;2023-07-20T07:47:36;2.47;;;1.38;;
75990;SDS011;64673;52.276;10.560;2023-07-20T07:50:01;2.72;;;1.23;;
75990;SDS011;64673;52.276;10.560;2023-07-20T07:52:27;2.30;;;1.23;;
75990;SDS011;64673;52.276;10.560;2023-07-20T07:54:52;1.50;;;0.88;;
75990;SDS011;64673;52.276;10.560;2023-07-20T07:57:18;1.00;;;0.50;;
75990;SDS011;64673;52.276;10.560;2023-07-20T07:59:43;4.20;;;0.70;;
75990;SDS011;64673;52.276;10.560;2023-07-20T08:02:09;1.65;;;0.88;;
75990;SDS011;64673;52.276;10.560;2023-07-20T08:04:35;1.50;;;0.60;;
75990;SDS011;64673;52.276;10.560;2023-07-20T08:07:01;1.30;;;0.80;;
75990;SDS011;64673;52.276;10.560;2023-07-20T08:09:28;2.38;;;1.10;;
75990;SDS011;64673;52.276;10.560;2023-07-20T08:11:54;2.45;;;1.25;;
75990;SDS011;64673;52.276;10.560;2023-07-20T08:14:19;1.00;;;0.70;;
75990;SDS011;64673;52.276;10.560;2023-07-20T08:16:45;1.80;;;1.10;;
75990;SDS011;64673;52.276;10.560;2023-07-20T08:19:11;3.10;;;1.50;;
75990;SDS011;64673;52.276;10.560;2023-07-20T08:21:36;2.53;;;1.40;;
75990;SDS011;64673;52.276;10.560;2023-07-20T08:24:02;1.88;;;0.90;;
75990;SDS011;64673;52.276;10.560;2023-07-20T08:26:27;1.42;;;1.00;;
75990;SDS011;64673;52.276;10.560;2023-07-20T08:28:52;1.63;;;0.90;;
75990;SDS011;64673;52.276;10.560;2023-07-20T08:31:18;1.90;;;1.23;;
75990;SDS011;64673;52.276;10.560;2023-07-20T08:33:44;2.00;;;1.35;;
75990;SDS011;64673;52.276;10.560;2023-07-20T08:36:09;2.08;;;1.42;;
75990;SDS011;64673;52.276;10.560;2023-07-20T08:38:34;2.25;;;1.33;;
75990;SDS011;64673;52.276;10.560;2023-07-20T08:41:00;1.40;;;0.90;;
75990;SDS011;64673;52.276;10.560;2023-07-20T08:43:26;1.40;;;1.08;;
75990;SDS011;64673;52.276;10.560;2023-07-20T08:45:54;1.45;;;0.77;;
75990;SDS011;64673;52.276;10.560;2023-07-20T08:48:20;2.17;;;1.00;;
75990;SDS011;64673;52.276;10.560;2023-07-20T08:50:47;1.58;;;0.93;;
75990;SDS011;64673;52.276;10.560;2023-07-20T08:53:15;0.73;;;0.47;;
75990;SDS011;64673;52.276;10.560;2023-07-20T08:55:42;1.80;;;0.70;;
75990;SDS011;64673;52.276;10.560;2023-07-20T08:58:13;1.08;;;0.70;;
75990;SDS011;64673;52.276;10.560;2023-07-20T09:03:06;1.48;;;0.70;;
75990;SDS011;64673;52.276;10.560;2023-07-20T09:05:31;0.98;;;0.50;;
75990;SDS011;64673;52.276;10.560;2023-07-20T09:07:57;1.90;;;0.40;;
75990;SDS011;64673;52.276;10.560;2023-07-20T09:10:23;0.80;;;0.40;;
75990;SDS011;64673;52.276;10.560;2023-07-20T09:12:49;2.28;;;0.80;;
75990;SDS011;64673;52.276;10.560;2023-07-20T09:15:15;1.50;;;0.50;;
75990;SDS011;64673;52.276;10.560;2023-07-20T09:17:45;2.85;;;0.50;;
75990;SDS011;64673;52.276;10.560;2023-07-20T09:20:14;3.00;;;0.60;;
75990;SDS011;64673;52.276;10.560;2023-07-20T09:22:42;2.25;;;0.43;;
75990;SDS011;64673;52.276;10.560;2023-07-20T09:25:14;0.60;;;0.50;;
75990;SDS011;64673;52.276;10.560;2023-07-20T09:27:42;1.58;;;0.50;;
75990;SDS011;64673;52.276;10.560;2023-07-20T09:30:09;1.35;;;0.30;;
75990;SDS011;64673;52.276;10.560;2023-07-20T09:32:38;0.80;;;0.40;;
75990;SDS011;64673;52.276;10.560;2023-07-20T09:37:47;1.50;;;0.25;;
75990;SDS011;64673;52.276;10.560;2023-07-20T09:40:17;1.63;;;0.35;;
75990;SDS011;64673;52.276;10.560;2023-07-20T09:42:42;1.95;;;0.30;;
75990;SDS011;64673;52.276;10.560;2023-07-20T09:45:08;0.73;;;0.32;;
75990;SDS011;64673;52.276;10.560;2023-07-20T09:47:37;0.50;;;0.30;;
75990;SDS011;64673;52.276;10.560;2023-07-20T09:50:04;0.60;;;0.40;;
75990;SDS011;64673;52.276;10.560;2023-07-20T09:52:35;0.75;;;0.43;;
75990;SDS011;64673;52.276;10.560;2023-07-20T09:55:02;1.02;;;0.50;;
75990;SDS011;64673;52.276;10.560;2023-07-20T09:57:28;1.42;;;0.50;;
75990;SDS011;64673;52.276;10.560;2023-07-20T09:59:54;1.95;;;0.55;;
75990;SDS011;64673;52.276;10.560;2023-07-20T10:02:20;0.65;;;0.40;;
75990;SDS011;64673;52.276;10.560;2023-07-20T10:04:52;1.02;;;0.35;;
75990;SDS011;64673;52.276;10.560;2023-07-20T10:07:19;2.22;;;0.50;;
75990;SDS011;64673;52.276;10.560;2023-07-20T10:09:48;0.77;;;0.50;;
75990;SDS011;64673;52.276;10.560;2023-07-20T10:12:13;0.73;;;0.22;;
75990;SDS011;64673;52.276;10.560;2023-07-20T10:14:42;0.35;;;0.20;;
75990;SDS011;64673;52.276;10.560;2023-07-20T10:17:15;1.20;;;0.50;;
75990;SDS011;64673;52.276;10.560;2023-07-20T10:19:43;0.30;;;0.20;;
75990;SDS011;64673;52.276;10.560;2023-07-20T10:22:14;1.52;;;0.40;;
75990;SDS011;64673;52.276;10.560;2023-07-20T10:24:46;0.75;;;0.35;;
75990;SDS011;64673;52.276;10.560;2023-07-20T10:27:14;1.85;;;0.50;;
75990;SDS011;64673;52.276;10.560;2023-07-20T10:29:40;1.77;;;0.45;;
75990;SDS011;64673;52.276;10.560;2023-07-20T10:32:07;0.68;;;0.45;;
75990;SDS011;64673;52.276;10.560;2023-07-20T10:34:33;0.43;;;0.30;;
75990;SDS011;64673;52.276;10.560;2023-07-20T10:36:59;1.77;;;0.60;;
75990;SDS011;64673;52.276;10.560;2023-07-20T10:39:25;0.77;;;0.38;;
75990;SDS011;64673;52.276;10.560;2023-07-20T10:42:08;1.02;;;0.40;;
75990;SDS011;64673;52.276;10.560;2023-07-20T10:44:37;0.93;;;0.50;;
75990;SDS011;64673;52.276;10.560;2023-07-20T10:47:08;1.83;;;0.80;;
75990;SDS011;64673;52.276;10.560;2023-07-20T10:49:34;0.75;;;0.30;;
75990;SDS011;64673;52.276;10.560;2023-07-20T10:52:03;0.57;;;0.40;;
75990;SDS011;64673;52.276;10.560;2023-07-20T10:54:33;0.50;;;0.40;;
75990;SDS011;64673;52.276;10.560;2023-07-20T10:57:21;1.58;;;0.40;;
75990;SDS011;64673;52.276;10.560;2023-07-20T11:00:09;1.48;;;0.50;;
75990;SDS011;64673;52.276;10.560;2023-07-20T11:02:45;0.63;;;0.43;;
75990;SDS011;64673;52.276;10.560;2023-07-20T11:07:56;0.70;;;0.40;;
75990;SDS011;64673;52.276;10.560;2023-07-20T11:10:22;0.73;;;0.40;;
75990;SDS011;64673;52.276;10.560;2023-07-20T11:18:25;0.82;;;0.40;;
75990;SDS011;64673;52.276;10.560;2023-07-20T11:20:51;1.25;;;0.43;;
75990;SDS011;64673;52.276;10.560;2023-07-20T11:23:19;0.80;;;0.60;;
75990;SDS011;64673;52.276;10.560;2023-07-20T11:28:10;1.67;;;0.60;;
75990;SDS011;64673;52.276;10.560;2023-07-20T11:30:36;0.77;;;0.57;;
75990;SDS011;64673;52.276;10.560;2023-07-20T11:33:03;0.68;;;0.40;;
75990;SDS011;64673;52.276;10.560;2023-07-20T11:35:29;1.58;;;0.50;;
75990;SDS011;64673;52.276;10.560;2023-07-20T11:37:55;1.00;;;0.70;;
75990;SDS011;64673;52.276;10.560;2023-07-20T11:40:21;0.70;;;0.70;;
75990;SDS011;64673;52.276;10.560;2023-07-20T11:42:47;1.52;;;0.60;;
75990;SDS011;64673;52.276;10.560;2023-07-20T11:45:15;0.90;;;0.50;;
75990;SDS011;64673;52.276;10.560;2023-07-20T11:47:41;1.05;;;0.57;;
75990;SDS011;64673;52.276;10.560;2023-07-20T11:50:07;0.75;;;0.45;;
75990;SDS011;64673;52.276;10.560;2023-07-20T11:52:33;1.00;;;0.50;;
75990;SDS011;64673;52.276;10.560;2023-07-20T11:54:59;1.60;;;0.30;;
75990;SDS011;64673;52.276;10.560;2023-07-20T11:57:25;1.45;;;0.50;;
75990;SDS011;64673;52.276;10.560;2023-07-20T11:59:54;1.42;;;0.40;;
75990;SDS011;64673;52.276;10.560;2023-07-20T12:02:24;1.42;;;0.50;;
75990;SDS011;64673;52.276;10.560;2023-07-20T12:04:52;1.95;;;0.40;;
75990;SDS011;64673;52.276;10.560;2023-07-20T12:07:19;0.82;;;0.40;;
75990;SDS011;64673;52.276;10.560;2023-07-20T12:09:44;1.60;;;0.50;;
75990;SDS011;64673;52.276;10.560;2023-07-20T12:12:10;0.90;;;0.40;;
75990;SDS011;64673;52.276;10.560;2023-07-20T12:14:39;0.80;;;0.40;;
75990;SDS011;64673;52.276;10.560;2023-07-20T12:17:04;0.93;;;0.40;;
75990;SDS011;64673;52.276;10.560;2023-07-20T12:19:37;0.55;;;0.20;;
75990;SDS011;64673;52.276;10.560;2023-07-20T12:22:04;0.50;;;0.32;;
75990;SDS011;64673;52.276;10.560;2023-07-20T12:24:31;1.58;;;0.40;;
75990;SDS011;64673;52.276;10.560;2023-07-20T12:26:56;0.28;;;0.22;;
75990;SDS011;64673;52.276;10.560;2023-07-20T12:31:48;0.60;;;0.30;;
75990;SDS011;64673;52.276;10.560;2023-07-20T12:34:13;0.95;;;0.52;;
75990;SDS011;64673;52.276;10.560;2023-07-20T12:36:39;2.08;;;0.80;;
75990;SDS011;64673;52.276;10.560;2023-07-20T12:39:04;1.50;;;0.50;;
75990;SDS011;64673;52.276;10.560;2023-07-20T12:41:30;2.92;;;0.60;;
75990;SDS011;64673;52.276;10.560;2023-07-20T12:43:55;0.63;;;0.40;;
75990;SDS011;64673;52.276;10.560;2023-07-20T12:46:22;2.03;;;0.40;;
75990;SDS011;64673;52.276;10.560;2023-07-20T12:48:48;0.88;;;0.22;;
75990;SDS011;64673;52.276;10.560;2023-07-20T12:51:14;1.10;;;0.40;;
75990;SDS011;64673;52.276;10.560;2023-07-20T12:53:39;2.80;;;0.50;;
75990;SDS011;64673;52.276;10.560;2023-07-20T12:56:05;1.73;;;0.70;;
75990;SDS011;64673;52.276;10.560;2023-07-20T12:58:30;1.38;;;0.30;;
75990;SDS011;64673;52.276;10.560;2023-07-20T13:00:55;0.50;;;0.30;;
75990;SDS011;64673;52.276;10.560;2023-07-20T13:03:21;0.80;;;0.20;;
75990;SDS011;64673;52.276;10.560;2023-07-20T13:05:46;2.25;;;0.60;;
75990;SDS011;64673;52.276;10.560;2023-07-20T13:08:13;1.05;;;0.28;;
75990;SDS011;64673;52.276;10.560;2023-07-20T13:10:38;0.80;;;0.35;;
75990;SDS011;64673;52.276;10.560;2023-07-20T13:13:04;0.55;;;0.30;;
75990;SDS011;64673;52.276;10.560;2023-07-20T13:15:40;0.82;;;0.40;;
75990;SDS011;64673;52.276;10.560;2023-07-20T13:18:07;1.70;;;0.50;;
75990;SDS011;64673;52.276;10.560;2023-07-20T13:20:32;1.00;;;0.40;;
75990;SDS011;64673;52.276;10.560;2023-07-20T13:22:57;1.42;;;0.20;;
75990;SDS011;64673;52.276;10.560;2023-07-20T13:25:23;1.45;;;0.52;;
75990;SDS011;64673;52.276;10.560;2023-07-20T13:27:49;1.45;;;0.40;;
75990;SDS011;64673;52.276;10.560;2023-07-20T13:30:14;1.05;;;0.47;;
75990;SDS011;64673;52.276;10.560;2023-07-20T13:32:41;0.60;;;0.30;;
75990;SDS011;64673;52.276;10.560;2023-07-20T13:35:10;1.48;;;0.40;;
75990;SDS011;64673;52.276;10.560;2023-07-20T13:37:36;2.00;;;0.40;;
75990;SDS011;64673;52.276;10.560;2023-07-20T13:40:01;1.02;;;0.55;;
75990;SDS011;64673;52.276;10.560;2023-07-20T13:42:29;1.00;;;0.50;;
75990;SDS011;64673;52.276;10.560;2023-07-20T13:44:54;0.60;;;0.40;;
75990;SDS011;64673;52.276;10.560;2023-07-20T13:47:19;1.88;;;0.47;;
75990;SDS011;64673;52.276;10.560;2023-07-20T13:49:45;1.25;;;0.50;;
75990;SDS011;64673;52.276;10.560;2023-07-20T13:52:10;1.15;;;0.50;;
75990;SDS011;64673;52.276;10.560;2023-07-20T13:54:35;1.17;;;0.50;;
75990;SDS011;64673;52.276;10.560;2023-07-20T13:57:01;2.35;;;0.82;;
75990;SDS011;64673;52.276;10.560;2023-07-20T13:59:27;3.30;;;0.52;;
75990;SDS011;64673;52.276;10.560;2023-07-20T14:01:53;1.48;;;0.57;;
75990;SDS011;64673;52.276;10.560;2023-07-20T14:04:18;0.80;;;0.30;;
75990;SDS011;64673;52.276;10.560;2023-07-20T14:06:43;1.17;;;0.50;;
75990;SDS011;64673;52.276;10.560;2023-07-20T14:09:09;1.42;;;0.80;;
75990;SDS011;64673;52.276;10.560;2023-07-20T14:11:34;1.52;;;0.52;;
75990;SDS011;64673;52.276;10.560;2023-07-20T14:14:00;2.08;;;0.57;;
75990;SDS011;64673;52.276;10.560;2023-07-20T14:16:25;0.80;;;0.57;;
75990;SDS011;64673;52.276;10.560;2023-07-20T14:18:51;0.80;;;0.50;;
75990;SDS011;64673;52.276;10.560;2023-07-20T14:21:16;0.98;;;0.50;;
75990;SDS011;64673;52.276;10.560;2023-07-20T14:23:48;1.48;;;0.50;;
75990;SDS011;64673;52.276;10.560;2023-07-20T14:26:16;0.80;;;0.63;;
75990;SDS011;64673;52.276;10.560;2023-07-20T14:28:41;1.98;;;0.50;;
75990;SDS011;64673;52.276;10.560;2023-07-20T14:31:06;0.60;;;0.45;;
75990;SDS011;64673;52.276;10.560;2023-07-20T14:33:32;1.13;;;0.50;;
75990;SDS011;64673;52.276;10.560;2023-07-20T14:35:57;1.85;;;0.40;;
75990;SDS011;64673;52.276;10.560;2023-07-20T14:38:23;1.75;;;0.35;;
75990;SDS011;64673;52.276;10.560;2023-07-20T14:40:48;0.70;;;0.40;;
75990;SDS011;64673;52.276;10.560;2023-07-20T14:43:13;0.60;;;0.30;;
75990;SDS011;64673;52.276;10.560;2023-07-20T14:45:40;1.85;;;0.50;;
75990;SDS011;64673;52.276;10.560;2023-07-20T14:50:31;1.10;;;0.60;;
75990;SDS011;64673;52.276;10.560;2023-07-20T14:52:56;1.17;;;0.47;;
75990;SDS011;64673;52.276;10.560;2023-07-20T14:55:22;1.42;;;0.30;;
75990;SDS011;64673;52.276;10.560;2023-07-20T14:57:50;1.55;;;0.50;;
75990;SDS011;64673;52.276;10.560;2023-07-20T15:00:16;0.50;;;0.30;;
75990;SDS011;64673;52.276;10.560;2023-07-20T15:02:41;1.25;;;0.43;;
75990;SDS011;64673;52.276;10.560;2023-07-20T15:05:07;1.67;;;0.63;;
75990;SDS011;64673;52.276;10.560;2023-07-20T15:07:33;1.02;;;0.60;;
75990;SDS011;64673;52.276;10.560;2023-07-20T15:09:59;1.58;;;0.40;;